sensor_id;sensor_type;location;lat;lon;timestamp;temperature;humidity
569;DHT22;269;48.884;9.192;2023-02-16T00:01:18;3.90;99.90
569;DHT22;269;48.884;9.192;2023-02-16T00:03:45;3.90;99.90
569;DHT22;269;48.884;9.192;2023-02-16T00:06:13;3.80;99.90
569;DHT22;269;48.884;9.192;2023-02-16T00:08:42;3.70;99.90
569;DHT22;269;48.884;9.192;2023-02-16T00:11:15;3.70;99.90
569;DHT22;269;48.884;9.192;2023-02-16T00:14:02;3.50;99.90
569;DHT22;269;48.884;9.192;2023-02-16T00:16:29;3.30;99.90
569;DHT22;269;48.884;9.192;2023-02-16T00:18:56;3.20;99.90
569;DHT22;269;48.884;9.192;2023-02-16T00:21:23;3.10;99.90
569;DHT22;269;48.884;9.192;2023-02-16T00:23:51;3.20;99.90
569;DHT22;269;48.884;9.192;2023-02-16T00:26:20;3.10;99.90
569;DHT22;269;48.884;9.192;2023-02-16T00:28:49;3.10;99.90
569;DHT22;269;48.884;9.192;2023-02-16T00:31:20;3.00;99.90
569;DHT22;269;48.884;9.192;2023-02-16T00:33:47;3.00;99.90
569;DHT22;269;48.884;9.192;2023-02-16T00:36:15;3.00;99.90
569;DHT22;269;48.884;9.192;2023-02-16T00:38:42;3.00;99.90
569;DHT22;269;48.884;9.192;2023-02-16T00:41:15;3.00;99.90
569;DHT22;269;48.884;9.192;2023-02-16T00:43:56;3.00;99.90
569;DHT22;269;48.884;9.192;2023-02-16T00:46:25;2.90;99.90
569;DHT22;269;48.884;9.192;2023-02-16T00:48:52;2.90;99.90
569;DHT22;269;48.884;9.192;2023-02-16T00:51:19;2.90;99.90
569;DHT22;269;48.884;9.192;2023-02-16T00:53:46;2.80;99.90
569;DHT22;269;48.884;9.192;2023-02-16T00:56:19;2.70;99.90
569;DHT22;269;48.884;9.192;2023-02-16T00:58:48;2.70;99.90
569;DHT22;269;48.884;9.192;2023-02-16T01:01:17;2.60;99.90
569;DHT22;269;48.884;9.192;2023-02-16T01:03:48;2.60;99.90
569;DHT22;269;48.884;9.192;2023-02-16T01:06:15;2.50;99.90
569;DHT22;269;48.884;9.192;2023-02-16T01:09:10;2.50;99.90
569;DHT22;269;48.884;9.192;2023-02-16T01:11:55;2.50;99.90
569;DHT22;269;48.884;9.192;2023-02-16T01:14:23;2.50;99.90
569;DHT22;269;48.884;9.192;2023-02-16T01:16:50;2.50;99.90
569;DHT22;269;48.884;9.192;2023-02-16T01:19:19;2.50;99.90
569;DHT22;269;48.884;9.192;2023-02-16T01:21:46;2.40;99.90
569;DHT22;269;48.884;9.192;2023-02-16T01:24:13;2.40;99.90
569;DHT22;269;48.884;9.192;2023-02-16T01:26:42;2.40;99.90
569;DHT22;269;48.884;9.192;2023-02-16T01:29:13;2.40;99.90
569;DHT22;269;48.884;9.192;2023-02-16T01:31:41;2.30;99.90
569;DHT22;269;48.884;9.192;2023-02-16T01:34:08;2.20;99.90
569;DHT22;269;48.884;9.192;2023-02-16T01:36:41;2.00;99.90
569;DHT22;269;48.884;9.192;2023-02-16T01:39:11;1.90;99.90
569;DHT22;269;48.884;9.192;2023-02-16T01:41:55;1.80;99.90
569;DHT22;269;48.884;9.192;2023-02-16T01:44:26;1.80;99.90
569;DHT22;269;48.884;9.192;2023-02-16T01:46:57;1.80;99.90
569;DHT22;269;48.884;9.192;2023-02-16T01:49:27;1.70;99.90
569;DHT22;269;48.884;9.192;2023-02-16T01:52:02;1.60;99.90
569;DHT22;269;48.884;9.192;2023-02-16T01:54:35;1.50;99.90
569;DHT22;269;48.884;9.192;2023-02-16T01:57:08;1.30;99.90
569;DHT22;269;48.884;9.192;2023-02-16T01:59:40;1.30;99.90
569;DHT22;269;48.884;9.192;2023-02-16T02:02:28;1.20;99.90
569;DHT22;269;48.884;9.192;2023-02-16T02:05:01;1.20;99.90
569;DHT22;269;48.884;9.192;2023-02-16T02:07:51;1.20;99.90
569;DHT22;269;48.884;9.192;2023-02-16T02:10:24;1.30;99.90
569;DHT22;269;48.884;9.192;2023-02-16T02:12:58;1.30;99.90
569;DHT22;269;48.884;9.192;2023-02-16T02:15:30;1.30;99.90
569;DHT22;269;48.884;9.192;2023-02-16T02:17:58;1.30;99.90
569;DHT22;269;48.884;9.192;2023-02-16T02:20:30;1.20;99.90
569;DHT22;269;48.884;9.192;2023-02-16T02:23:25;1.20;99.90
569;DHT22;269;48.884;9.192;2023-02-16T02:29:19;1.00;99.90
569;DHT22;269;48.884;9.192;2023-02-16T02:31:56;1.00;99.90
569;DHT22;269;48.884;9.192;2023-02-16T02:34:33;1.10;99.90
569;DHT22;269;48.884;9.192;2023-02-16T02:37:09;1.10;99.90
569;DHT22;269;48.884;9.192;2023-02-16T02:39:43;1.20;99.90
569;DHT22;269;48.884;9.192;2023-02-16T02:42:15;1.20;99.90
569;DHT22;269;48.884;9.192;2023-02-16T02:44:48;1.30;99.90
569;DHT22;269;48.884;9.192;2023-02-16T02:47:17;1.30;99.90
569;DHT22;269;48.884;9.192;2023-02-16T02:49:49;1.30;99.90
569;DHT22;269;48.884;9.192;2023-02-16T02:52:16;1.30;99.90
569;DHT22;269;48.884;9.192;2023-02-16T02:54:44;1.30;99.90
569;DHT22;269;48.884;9.192;2023-02-16T02:57:32;1.20;99.90
569;DHT22;269;48.884;9.192;2023-02-16T03:00:22;1.20;99.90
569;DHT22;269;48.884;9.192;2023-02-16T03:03:14;1.10;99.90
569;DHT22;269;48.884;9.192;2023-02-16T03:05:45;1.00;99.90
569;DHT22;269;48.884;9.192;2023-02-16T03:08:16;0.90;99.90
569;DHT22;269;48.884;9.192;2023-02-16T03:10:49;0.90;99.90
569;DHT22;269;48.884;9.192;2023-02-16T03:13:37;0.80;99.90
569;DHT22;269;48.884;9.192;2023-02-16T03:16:10;0.80;99.90
569;DHT22;269;48.884;9.192;2023-02-16T03:18:40;0.80;99.90
569;DHT22;269;48.884;9.192;2023-02-16T03:21:26;0.80;99.90
569;DHT22;269;48.884;9.192;2023-02-16T03:24:17;0.90;99.90
569;DHT22;269;48.884;9.192;2023-02-16T03:27:03;1.00;99.90
569;DHT22;269;48.884;9.192;2023-02-16T03:29:50;1.10;99.90
569;DHT22;269;48.884;9.192;2023-02-16T03:32:20;1.10;99.90
569;DHT22;269;48.884;9.192;2023-02-16T03:34:47;1.10;99.90
569;DHT22;269;48.884;9.192;2023-02-16T03:37:14;1.10;99.90
569;DHT22;269;48.884;9.192;2023-02-16T03:39:42;1.10;99.90
569;DHT22;269;48.884;9.192;2023-02-16T03:42:27;1.20;99.90
569;DHT22;269;48.884;9.192;2023-02-16T03:44:54;1.20;99.90
569;DHT22;269;48.884;9.192;2023-02-16T03:47:22;1.20;99.90
569;DHT22;269;48.884;9.192;2023-02-16T03:49:49;1.20;99.90
569;DHT22;269;48.884;9.192;2023-02-16T03:52:16;1.20;99.90
569;DHT22;269;48.884;9.192;2023-02-16T03:54:43;1.30;99.90
569;DHT22;269;48.884;9.192;2023-02-16T03:57:10;1.30;99.90
569;DHT22;269;48.884;9.192;2023-02-16T03:59:37;1.40;99.90
569;DHT22;269;48.884;9.192;2023-02-16T04:02:04;1.40;99.90
569;DHT22;269;48.884;9.192;2023-02-16T04:04:33;1.40;99.90
569;DHT22;269;48.884;9.192;2023-02-16T04:07:00;1.40;99.90
569;DHT22;269;48.884;9.192;2023-02-16T04:09:27;1.40;99.90
569;DHT22;269;48.884;9.192;2023-02-16T04:11:54;1.40;99.90
569;DHT22;269;48.884;9.192;2023-02-16T04:14:38;1.40;99.90
569;DHT22;269;48.884;9.192;2023-02-16T04:17:05;1.30;99.90
569;DHT22;269;48.884;9.192;2023-02-16T04:19:34;1.30;99.90
569;DHT22;269;48.884;9.192;2023-02-16T04:22:00;1.30;99.90
569;DHT22;269;48.884;9.192;2023-02-16T04:24:28;1.20;99.90
569;DHT22;269;48.884;9.192;2023-02-16T04:26:55;1.20;99.90
569;DHT22;269;48.884;9.192;2023-02-16T04:29:21;1.10;99.90
569;DHT22;269;48.884;9.192;2023-02-16T04:31:49;1.00;99.90
569;DHT22;269;48.884;9.192;2023-02-16T04:34:16;1.00;99.90
569;DHT22;269;48.884;9.192;2023-02-16T04:36:44;0.90;99.90
569;DHT22;269;48.884;9.192;2023-02-16T04:39:11;0.90;99.90
569;DHT22;269;48.884;9.192;2023-02-16T04:41:38;0.80;99.90
569;DHT22;269;48.884;9.192;2023-02-16T04:44:05;0.80;99.90
569;DHT22;269;48.884;9.192;2023-02-16T04:46:32;0.80;99.90
569;DHT22;269;48.884;9.192;2023-02-16T04:48:59;0.80;99.90
569;DHT22;269;48.884;9.192;2023-02-16T04:51:26;0.80;99.90
569;DHT22;269;48.884;9.192;2023-02-16T04:53:54;0.70;99.90
569;DHT22;269;48.884;9.192;2023-02-16T04:56:21;0.70;99.90
569;DHT22;269;48.884;9.192;2023-02-16T04:58:48;0.60;99.90
569;DHT22;269;48.884;9.192;2023-02-16T05:01:20;0.60;99.90
569;DHT22;269;48.884;9.192;2023-02-16T05:03:48;0.60;99.90
569;DHT22;269;48.884;9.192;2023-02-16T05:06:15;0.60;99.90
569;DHT22;269;48.884;9.192;2023-02-16T05:08:43;0.60;99.90
569;DHT22;269;48.884;9.192;2023-02-16T05:11:11;0.60;99.90
569;DHT22;269;48.884;9.192;2023-02-16T05:13:56;0.60;99.90
569;DHT22;269;48.884;9.192;2023-02-16T05:16:41;0.60;99.90
569;DHT22;269;48.884;9.192;2023-02-16T05:19:09;0.70;99.90
569;DHT22;269;48.884;9.192;2023-02-16T05:21:36;0.70;99.90
569;DHT22;269;48.884;9.192;2023-02-16T05:24:05;0.70;99.90
569;DHT22;269;48.884;9.192;2023-02-16T05:26:35;0.60;99.90
569;DHT22;269;48.884;9.192;2023-02-16T05:29:03;0.50;99.90
569;DHT22;269;48.884;9.192;2023-02-16T05:31:31;0.50;99.90
569;DHT22;269;48.884;9.192;2023-02-16T05:33:58;0.50;99.90
569;DHT22;269;48.884;9.192;2023-02-16T05:36:25;0.50;99.90
569;DHT22;269;48.884;9.192;2023-02-16T05:38:52;0.40;99.90
569;DHT22;269;48.884;9.192;2023-02-16T05:41:19;0.40;99.90
569;DHT22;269;48.884;9.192;2023-02-16T05:43:55;0.40;99.90
569;DHT22;269;48.884;9.192;2023-02-16T05:46:23;0.40;99.90
569;DHT22;269;48.884;9.192;2023-02-16T05:48:51;0.40;99.90
569;DHT22;269;48.884;9.192;2023-02-16T05:51:18;0.40;99.90
569;DHT22;269;48.884;9.192;2023-02-16T05:53:46;0.40;99.90
569;DHT22;269;48.884;9.192;2023-02-16T05:56:13;0.40;99.90
569;DHT22;269;48.884;9.192;2023-02-16T05:58:40;0.30;99.90
569;DHT22;269;48.884;9.192;2023-02-16T06:01:09;0.30;99.90
569;DHT22;269;48.884;9.192;2023-02-16T06:03:36;0.30;99.90
569;DHT22;269;48.884;9.192;2023-02-16T06:06:04;0.30;99.90
569;DHT22;269;48.884;9.192;2023-02-16T06:08:32;0.40;99.90
569;DHT22;269;48.884;9.192;2023-02-16T06:10:59;0.40;99.90
569;DHT22;269;48.884;9.192;2023-02-16T06:13:26;0.40;99.90
569;DHT22;269;48.884;9.192;2023-02-16T06:15:55;0.40;99.90
569;DHT22;269;48.884;9.192;2023-02-16T06:18:23;0.40;99.90
569;DHT22;269;48.884;9.192;2023-02-16T06:20:51;0.50;99.90
569;DHT22;269;48.884;9.192;2023-02-16T06:23:18;0.60;99.90
569;DHT22;269;48.884;9.192;2023-02-16T06:25:48;0.60;99.90
569;DHT22;269;48.884;9.192;2023-02-16T06:28:15;0.60;99.90
569;DHT22;269;48.884;9.192;2023-02-16T06:30:43;0.50;99.90
569;DHT22;269;48.884;9.192;2023-02-16T06:33:10;0.50;99.90
569;DHT22;269;48.884;9.192;2023-02-16T06:35:38;0.40;99.90
569;DHT22;269;48.884;9.192;2023-02-16T06:38:05;0.50;99.90
569;DHT22;269;48.884;9.192;2023-02-16T06:40:32;0.50;99.90
569;DHT22;269;48.884;9.192;2023-02-16T06:43:00;0.50;99.90
569;DHT22;269;48.884;9.192;2023-02-16T06:45:27;0.40;99.90
569;DHT22;269;48.884;9.192;2023-02-16T06:47:54;0.50;99.90
569;DHT22;269;48.884;9.192;2023-02-16T06:50:21;0.40;99.90
569;DHT22;269;48.884;9.192;2023-02-16T06:52:50;0.40;99.90
569;DHT22;269;48.884;9.192;2023-02-16T06:55:17;0.40;99.90
569;DHT22;269;48.884;9.192;2023-02-16T06:57:44;0.40;99.90
569;DHT22;269;48.884;9.192;2023-02-16T07:00:12;0.30;99.90
569;DHT22;269;48.884;9.192;2023-02-16T07:02:39;0.30;99.90
569;DHT22;269;48.884;9.192;2023-02-16T07:05:08;0.30;99.90
569;DHT22;269;48.884;9.192;2023-02-16T07:07:36;0.20;99.90
569;DHT22;269;48.884;9.192;2023-02-16T07:10:05;0.30;99.90
569;DHT22;269;48.884;9.192;2023-02-16T07:12:33;0.30;99.90
569;DHT22;269;48.884;9.192;2023-02-16T07:15:00;0.30;99.90
569;DHT22;269;48.884;9.192;2023-02-16T07:17:27;0.30;99.90
569;DHT22;269;48.884;9.192;2023-02-16T07:19:54;0.40;99.90
569;DHT22;269;48.884;9.192;2023-02-16T07:22:21;0.50;99.90
569;DHT22;269;48.884;9.192;2023-02-16T07:24:48;0.50;99.90
569;DHT22;269;48.884;9.192;2023-02-16T07:27:16;0.60;99.90
569;DHT22;269;48.884;9.192;2023-02-16T07:29:44;0.70;99.90
569;DHT22;269;48.884;9.192;2023-02-16T07:32:11;0.70;99.90
569;DHT22;269;48.884;9.192;2023-02-16T07:34:38;0.80;99.90
569;DHT22;269;48.884;9.192;2023-02-16T07:37:05;0.90;99.90
569;DHT22;269;48.884;9.192;2023-02-16T07:39:32;1.00;99.90
569;DHT22;269;48.884;9.192;2023-02-16T07:41:59;1.20;99.90
569;DHT22;269;48.884;9.192;2023-02-16T07:44:28;1.30;99.90
569;DHT22;269;48.884;9.192;2023-02-16T07:46:55;1.40;99.90
569;DHT22;269;48.884;9.192;2023-02-16T07:49:22;1.60;99.90
569;DHT22;269;48.884;9.192;2023-02-16T07:51:49;1.70;99.90
569;DHT22;269;48.884;9.192;2023-02-16T07:54:16;1.80;99.90
569;DHT22;269;48.884;9.192;2023-02-16T07:56:43;2.00;99.90
569;DHT22;269;48.884;9.192;2023-02-16T07:59:14;2.20;99.90
569;DHT22;269;48.884;9.192;2023-02-16T08:01:42;2.30;99.90
569;DHT22;269;48.884;9.192;2023-02-16T08:04:09;2.40;99.90
569;DHT22;269;48.884;9.192;2023-02-16T08:06:36;2.50;99.90
569;DHT22;269;48.884;9.192;2023-02-16T08:09:03;2.50;99.90
569;DHT22;269;48.884;9.192;2023-02-16T08:11:30;2.70;99.90
569;DHT22;269;48.884;9.192;2023-02-16T08:13:58;2.80;99.90
569;DHT22;269;48.884;9.192;2023-02-16T08:16:27;2.90;99.90
569;DHT22;269;48.884;9.192;2023-02-16T08:18:57;3.10;99.90
569;DHT22;269;48.884;9.192;2023-02-16T08:21:27;3.40;99.90
569;DHT22;269;48.884;9.192;2023-02-16T08:23:57;3.60;99.90
569;DHT22;269;48.884;9.192;2023-02-16T08:26:27;3.80;99.90
569;DHT22;269;48.884;9.192;2023-02-16T08:28:57;3.90;99.90
569;DHT22;269;48.884;9.192;2023-02-16T08:31:26;4.10;99.90
569;DHT22;269;48.884;9.192;2023-02-16T08:33:57;4.30;99.90
569;DHT22;269;48.884;9.192;2023-02-16T08:36:27;4.60;99.90
569;DHT22;269;48.884;9.192;2023-02-16T08:38:57;4.80;99.90
569;DHT22;269;48.884;9.192;2023-02-16T08:41:29;5.00;99.90
569;DHT22;269;48.884;9.192;2023-02-16T08:43:57;5.10;99.90
569;DHT22;269;48.884;9.192;2023-02-16T08:46:26;5.20;99.90
569;DHT22;269;48.884;9.192;2023-02-16T08:48:55;5.30;99.90
569;DHT22;269;48.884;9.192;2023-02-16T08:51:26;5.50;99.90
569;DHT22;269;48.884;9.192;2023-02-16T08:53:53;5.80;99.90
569;DHT22;269;48.884;9.192;2023-02-16T08:56:21;6.00;99.90
569;DHT22;269;48.884;9.192;2023-02-16T08:58:48;6.20;99.90
569;DHT22;269;48.884;9.192;2023-02-16T09:01:15;6.50;99.90
569;DHT22;269;48.884;9.192;2023-02-16T09:03:44;6.80;99.90
569;DHT22;269;48.884;9.192;2023-02-16T09:06:15;6.70;99.90
569;DHT22;269;48.884;9.192;2023-02-16T09:08:42;6.90;99.90
569;DHT22;269;48.884;9.192;2023-02-16T09:11:13;7.00;99.90
569;DHT22;269;48.884;9.192;2023-02-16T09:13:41;6.70;99.90
569;DHT22;269;48.884;9.192;2023-02-16T09:16:10;6.80;99.90
569;DHT22;269;48.884;9.192;2023-02-16T09:18:38;7.30;99.90
569;DHT22;269;48.884;9.192;2023-02-16T09:21:07;7.40;99.90
569;DHT22;269;48.884;9.192;2023-02-16T09:23:37;7.70;99.90
569;DHT22;269;48.884;9.192;2023-02-16T09:26:05;8.20;99.90
569;DHT22;269;48.884;9.192;2023-02-16T09:28:33;8.70;99.90
569;DHT22;269;48.884;9.192;2023-02-16T09:31:08;8.90;99.90
569;DHT22;269;48.884;9.192;2023-02-16T09:33:36;9.20;99.90
569;DHT22;269;48.884;9.192;2023-02-16T09:36:04;9.50;99.90
569;DHT22;269;48.884;9.192;2023-02-16T09:38:31;9.80;99.90
569;DHT22;269;48.884;9.192;2023-02-16T09:41:04;10.10;99.90
569;DHT22;269;48.884;9.192;2023-02-16T09:43:42;10.60;99.90
569;DHT22;269;48.884;9.192;2023-02-16T09:46:12;11.00;99.90
569;DHT22;269;48.884;9.192;2023-02-16T09:48:44;11.30;99.90
569;DHT22;269;48.884;9.192;2023-02-16T09:51:18;11.50;99.90
569;DHT22;269;48.884;9.192;2023-02-16T09:53:52;11.80;99.90
569;DHT22;269;48.884;9.192;2023-02-16T09:56:26;12.10;99.90
569;DHT22;269;48.884;9.192;2023-02-16T09:58:58;12.60;99.90
569;DHT22;269;48.884;9.192;2023-02-16T10:01:35;13.20;99.90
569;DHT22;269;48.884;9.192;2023-02-16T10:04:14;12.80;99.90
569;DHT22;269;48.884;9.192;2023-02-16T10:06:52;13.00;99.90
569;DHT22;269;48.884;9.192;2023-02-16T10:09:24;13.30;99.90
569;DHT22;269;48.884;9.192;2023-02-16T10:11:58;13.70;99.90
569;DHT22;269;48.884;9.192;2023-02-16T10:14:31;14.10;99.90
569;DHT22;269;48.884;9.192;2023-02-16T10:17:07;14.50;99.90
569;DHT22;269;48.884;9.192;2023-02-16T10:19:41;14.80;99.90
569;DHT22;269;48.884;9.192;2023-02-16T10:22:14;14.90;99.90
569;DHT22;269;48.884;9.192;2023-02-16T10:24:48;15.00;99.90
569;DHT22;269;48.884;9.192;2023-02-16T10:27:20;14.60;99.90
569;DHT22;269;48.884;9.192;2023-02-16T10:29:48;14.60;99.90
569;DHT22;269;48.884;9.192;2023-02-16T10:32:24;14.90;99.50
569;DHT22;269;48.884;9.192;2023-02-16T10:35:02;15.20;99.90
569;DHT22;269;48.884;9.192;2023-02-16T10:37:46;15.70;98.70
569;DHT22;269;48.884;9.192;2023-02-16T10:40:26;15.90;98.90
569;DHT22;269;48.884;9.192;2023-02-16T10:43:02;16.20;97.80
569;DHT22;269;48.884;9.192;2023-02-16T10:45:36;16.60;97.50
569;DHT22;269;48.884;9.192;2023-02-16T10:48:05;17.00;96.00
569;DHT22;269;48.884;9.192;2023-02-16T10:50:38;17.30;95.60
569;DHT22;269;48.884;9.192;2023-02-16T10:53:12;17.70;94.30
569;DHT22;269;48.884;9.192;2023-02-16T10:55:40;18.20;94.00
569;DHT22;269;48.884;9.192;2023-02-16T10:58:17;18.40;92.40
569;DHT22;269;48.884;9.192;2023-02-16T11:00:51;18.60;90.40
569;DHT22;269;48.884;9.192;2023-02-16T11:03:23;18.60;91.30
569;DHT22;269;48.884;9.192;2023-02-16T11:05:51;18.90;90.20
569;DHT22;269;48.884;9.192;2023-02-16T11:08:19;19.10;87.30
569;DHT22;269;48.884;9.192;2023-02-16T11:10:50;19.30;87.40
569;DHT22;269;48.884;9.192;2023-02-16T11:13:30;19.60;84.70
569;DHT22;269;48.884;9.192;2023-02-16T11:16:02;19.50;83.80
569;DHT22;269;48.884;9.192;2023-02-16T11:18:35;19.70;82.30
569;DHT22;269;48.884;9.192;2023-02-16T11:21:03;19.70;81.00
569;DHT22;269;48.884;9.192;2023-02-16T11:23:32;19.60;81.10
569;DHT22;269;48.884;9.192;2023-02-16T11:26:02;19.90;79.20
569;DHT22;269;48.884;9.192;2023-02-16T11:28:34;20.20;78.30
569;DHT22;269;48.884;9.192;2023-02-16T11:31:12;20.60;77.50
569;DHT22;269;48.884;9.192;2023-02-16T11:33:42;20.90;75.10
569;DHT22;269;48.884;9.192;2023-02-16T11:36:24;21.30;74.80
569;DHT22;269;48.884;9.192;2023-02-16T11:38:59;21.60;73.80
569;DHT22;269;48.884;9.192;2023-02-16T11:41:27;21.90;71.00
569;DHT22;269;48.884;9.192;2023-02-16T11:43:56;22.00;71.20
569;DHT22;269;48.884;9.192;2023-02-16T11:46:23;22.20;68.20
569;DHT22;269;48.884;9.192;2023-02-16T11:48:51;21.90;65.90
569;DHT22;269;48.884;9.192;2023-02-16T11:51:31;21.40;66.80
569;DHT22;269;48.884;9.192;2023-02-16T11:54:00;21.40;67.50
569;DHT22;269;48.884;9.192;2023-02-16T11:56:29;21.90;67.50
569;DHT22;269;48.884;9.192;2023-02-16T11:59:06;22.30;63.20
569;DHT22;269;48.884;9.192;2023-02-16T12:04:37;22.50;62.20
569;DHT22;269;48.884;9.192;2023-02-16T12:07:16;22.50;62.60
569;DHT22;269;48.884;9.192;2023-02-16T12:09:54;22.60;62.50
569;DHT22;269;48.884;9.192;2023-02-16T12:12:31;22.90;60.10
569;DHT22;269;48.884;9.192;2023-02-16T12:15:09;22.30;60.20
569;DHT22;269;48.884;9.192;2023-02-16T12:17:55;22.20;60.10
569;DHT22;269;48.884;9.192;2023-02-16T12:20:35;22.40;60.10
569;DHT22;269;48.884;9.192;2023-02-16T12:23:12;22.80;59.10
569;DHT22;269;48.884;9.192;2023-02-16T12:25:48;22.90;58.50
569;DHT22;269;48.884;9.192;2023-02-16T12:28:23;22.30;58.80
569;DHT22;269;48.884;9.192;2023-02-16T12:31:01;21.50;59.70
569;DHT22;269;48.884;9.192;2023-02-16T12:33:39;20.80;60.40
569;DHT22;269;48.884;9.192;2023-02-16T12:36:22;20.40;62.70
569;DHT22;269;48.884;9.192;2023-02-16T12:38:59;20.40;63.10
569;DHT22;269;48.884;9.192;2023-02-16T12:41:40;20.40;63.30
569;DHT22;269;48.884;9.192;2023-02-16T12:44:14;20.20;63.50
569;DHT22;269;48.884;9.192;2023-02-16T12:46:46;20.20;63.90
569;DHT22;269;48.884;9.192;2023-02-16T12:49:18;20.30;63.50
569;DHT22;269;48.884;9.192;2023-02-16T12:51:52;20.10;62.80
569;DHT22;269;48.884;9.192;2023-02-16T12:54:24;20.10;63.30
569;DHT22;269;48.884;9.192;2023-02-16T12:56:59;20.30;64.60
569;DHT22;269;48.884;9.192;2023-02-16T12:59:33;20.70;63.70
569;DHT22;269;48.884;9.192;2023-02-16T13:02:10;21.20;63.60
569;DHT22;269;48.884;9.192;2023-02-16T13:04:44;21.70;62.90
569;DHT22;269;48.884;9.192;2023-02-16T13:07:15;22.00;62.10
569;DHT22;269;48.884;9.192;2023-02-16T13:09:50;22.20;61.20
569;DHT22;269;48.884;9.192;2023-02-16T13:12:25;22.30;61.90
569;DHT22;269;48.884;9.192;2023-02-16T13:15:02;22.50;62.10
569;DHT22;269;48.884;9.192;2023-02-16T13:17:34;22.90;61.40
569;DHT22;269;48.884;9.192;2023-02-16T13:20:09;22.80;60.10
569;DHT22;269;48.884;9.192;2023-02-16T13:22:57;22.70;60.70
569;DHT22;269;48.884;9.192;2023-02-16T13:25:52;22.50;61.00
569;DHT22;269;48.884;9.192;2023-02-16T13:28:35;22.40;65.50
569;DHT22;269;48.884;9.192;2023-02-16T13:31:26;22.30;63.40
569;DHT22;269;48.884;9.192;2023-02-16T13:34:06;22.00;61.60
569;DHT22;269;48.884;9.192;2023-02-16T13:36:59;21.60;62.40
569;DHT22;269;48.884;9.192;2023-02-16T13:39:53;21.10;62.90
569;DHT22;269;48.884;9.192;2023-02-16T13:45:18;20.00;65.10
569;DHT22;269;48.884;9.192;2023-02-16T13:47:46;19.80;66.40
569;DHT22;269;48.884;9.192;2023-02-16T13:50:27;19.40;67.10
569;DHT22;269;48.884;9.192;2023-02-16T13:52:56;19.20;67.90
569;DHT22;269;48.884;9.192;2023-02-16T13:55:27;19.10;68.50
569;DHT22;269;48.884;9.192;2023-02-16T13:58:03;19.00;69.00
569;DHT22;269;48.884;9.192;2023-02-16T14:00:33;19.00;69.80
569;DHT22;269;48.884;9.192;2023-02-16T14:03:09;18.90;69.70
569;DHT22;269;48.884;9.192;2023-02-16T14:05:40;18.80;70.20
569;DHT22;269;48.884;9.192;2023-02-16T14:08:10;18.70;70.80
569;DHT22;269;48.884;9.192;2023-02-16T14:11:07;18.70;70.70
569;DHT22;269;48.884;9.192;2023-02-16T14:13:48;18.40;71.40
569;DHT22;269;48.884;9.192;2023-02-16T14:16:32;18.40;71.90
569;DHT22;269;48.884;9.192;2023-02-16T14:19:02;18.30;72.30
569;DHT22;269;48.884;9.192;2023-02-16T14:21:38;18.40;72.70
569;DHT22;269;48.884;9.192;2023-02-16T14:24:10;18.50;72.20
569;DHT22;269;48.884;9.192;2023-02-16T14:26:53;18.50;72.20
569;DHT22;269;48.884;9.192;2023-02-16T14:29:23;18.50;72.00
569;DHT22;269;48.884;9.192;2023-02-16T14:31:56;18.40;72.40
569;DHT22;269;48.884;9.192;2023-02-16T14:34:27;18.30;72.70
569;DHT22;269;48.884;9.192;2023-02-16T14:37:27;18.20;72.40
569;DHT22;269;48.884;9.192;2023-02-16T14:40:02;18.20;73.40
569;DHT22;269;48.884;9.192;2023-02-16T14:42:31;18.20;73.60
569;DHT22;269;48.884;9.192;2023-02-16T14:45:09;18.10;72.60
569;DHT22;269;48.884;9.192;2023-02-16T14:47:50;18.00;73.20
569;DHT22;269;48.884;9.192;2023-02-16T14:50:33;17.90;73.50
569;DHT22;269;48.884;9.192;2023-02-16T14:53:27;17.70;73.60
569;DHT22;269;48.884;9.192;2023-02-16T14:56:33;17.50;73.60
569;DHT22;269;48.884;9.192;2023-02-16T14:59:08;17.30;73.60
569;DHT22;269;48.884;9.192;2023-02-16T15:01:39;17.20;74.20
569;DHT22;269;48.884;9.192;2023-02-16T15:04:08;17.10;75.00
569;DHT22;269;48.884;9.192;2023-02-16T15:06:39;16.90;74.90
569;DHT22;269;48.884;9.192;2023-02-16T15:09:15;16.60;75.70
569;DHT22;269;48.884;9.192;2023-02-16T15:11:48;16.40;76.00
569;DHT22;269;48.884;9.192;2023-02-16T15:14:36;16.30;76.80
569;DHT22;269;48.884;9.192;2023-02-16T15:17:08;16.10;77.60
569;DHT22;269;48.884;9.192;2023-02-16T15:19:36;15.90;78.40
569;DHT22;269;48.884;9.192;2023-02-16T15:22:17;15.80;79.20
569;DHT22;269;48.884;9.192;2023-02-16T15:24:56;15.90;79.60
569;DHT22;269;48.884;9.192;2023-02-16T15:27:24;15.80;79.40
569;DHT22;269;48.884;9.192;2023-02-16T15:30:03;15.70;79.70
569;DHT22;269;48.884;9.192;2023-02-16T15:32:31;15.50;80.40
569;DHT22;269;48.884;9.192;2023-02-16T15:35:07;15.50;81.40
569;DHT22;269;48.884;9.192;2023-02-16T15:37:34;15.40;81.50
569;DHT22;269;48.884;9.192;2023-02-16T15:40:18;15.40;82.10
569;DHT22;269;48.884;9.192;2023-02-16T15:42:53;15.30;82.40
569;DHT22;269;48.884;9.192;2023-02-16T15:45:30;15.10;83.10
569;DHT22;269;48.884;9.192;2023-02-16T15:48:19;15.10;83.30
569;DHT22;269;48.884;9.192;2023-02-16T15:50:47;15.00;83.20
569;DHT22;269;48.884;9.192;2023-02-16T15:53:22;14.90;83.30
569;DHT22;269;48.884;9.192;2023-02-16T15:55:51;14.80;84.20
569;DHT22;269;48.884;9.192;2023-02-16T15:58:19;14.70;85.40
569;DHT22;269;48.884;9.192;2023-02-16T16:00:46;14.60;87.00
569;DHT22;269;48.884;9.192;2023-02-16T16:03:15;14.40;87.70
569;DHT22;269;48.884;9.192;2023-02-16T16:05:54;14.30;89.00
569;DHT22;269;48.884;9.192;2023-02-16T16:08:25;14.30;89.80
569;DHT22;269;48.884;9.192;2023-02-16T16:10:54;14.30;90.10
569;DHT22;269;48.884;9.192;2023-02-16T16:13:23;14.10;90.40
569;DHT22;269;48.884;9.192;2023-02-16T16:15:55;14.10;90.60
569;DHT22;269;48.884;9.192;2023-02-16T16:18:46;14.00;90.50
569;DHT22;269;48.884;9.192;2023-02-16T16:21:22;13.90;90.50
569;DHT22;269;48.884;9.192;2023-02-16T16:23:58;13.80;90.70
569;DHT22;269;48.884;9.192;2023-02-16T16:26:30;13.80;91.00
569;DHT22;269;48.884;9.192;2023-02-16T16:28:57;13.70;91.30
569;DHT22;269;48.884;9.192;2023-02-16T16:31:40;13.60;91.50
569;DHT22;269;48.884;9.192;2023-02-16T16:34:11;13.60;91.30
569;DHT22;269;48.884;9.192;2023-02-16T16:36:57;13.60;91.30
569;DHT22;269;48.884;9.192;2023-02-16T16:39:26;13.60;91.40
569;DHT22;269;48.884;9.192;2023-02-16T16:42:25;13.50;91.60
569;DHT22;269;48.884;9.192;2023-02-16T16:44:58;13.60;91.80
569;DHT22;269;48.884;9.192;2023-02-16T16:47:28;13.60;91.80
569;DHT22;269;48.884;9.192;2023-02-16T16:49:58;13.60;91.90
569;DHT22;269;48.884;9.192;2023-02-16T16:52:30;13.50;92.00
569;DHT22;269;48.884;9.192;2023-02-16T16:54:58;13.70;92.10
569;DHT22;269;48.884;9.192;2023-02-16T16:57:26;13.50;92.10
569;DHT22;269;48.884;9.192;2023-02-16T16:59:54;13.40;92.10
569;DHT22;269;48.884;9.192;2023-02-16T17:02:22;13.40;92.20
569;DHT22;269;48.884;9.192;2023-02-16T17:04:48;13.40;92.30
569;DHT22;269;48.884;9.192;2023-02-16T17:07:15;13.40;92.30
569;DHT22;269;48.884;9.192;2023-02-16T17:09:43;13.40;92.30
569;DHT22;269;48.884;9.192;2023-02-16T17:12:10;13.40;92.50
569;DHT22;269;48.884;9.192;2023-02-16T17:14:38;13.30;92.30
569;DHT22;269;48.884;9.192;2023-02-16T17:17:05;13.30;92.40
569;DHT22;269;48.884;9.192;2023-02-16T17:19:33;13.30;92.40
569;DHT22;269;48.884;9.192;2023-02-16T17:22:00;13.30;92.30
569;DHT22;269;48.884;9.192;2023-02-16T17:24:27;13.30;91.30
569;DHT22;269;48.884;9.192;2023-02-16T17:26:54;13.30;90.60